Time;durP1;ratioP1;P1;durP2;ratioP2;P2;SDS_P1;SDS_P2;PMS_P1;PMS_P2;Temp;Humidity;BMP_temperature;BMP_pressure;BME280_temperature;BME280_humidity;BME280_pressure;Samples;Min_cycle;Max_cycle;Signal;HPM_P1;HPM_P2
2022/07/22 00:01:44;;;;;;;;;23.00;21.00;;;;;22.83;61.24;101518.41;5019534;28;45343;-64
2022/07/22 00:04:09;;;;;;;;;28.67;25.67;;;;;22.86;60.76;101528.84;5019316;28;45518;-65
2022/07/22 00:06:34;;;;;;;;;27.00;24.00;;;;;22.87;60.80;101516.94;5018968;28;45269;-66
2022/07/22 00:09:00;;;;;;;;;25.00;22.33;;;;;22.70;61.75;101514.59;5019163;28;45260;-66
2022/07/22 00:11:25;;;;;;;;;37.00;30.67;;;;;22.59;61.68;101520.59;5019217;28;45451;-66
2022/07/22 00:13:54;;;;;;;;;26.00;25.00;;;;;22.58;62.01;101510.78;5017338;28;46472;-67
2022/07/22 00:16:19;;;;;;;;;29.67;26.67;;;;;22.28;61.98;101479.66;5018647;28;45427;-64
2022/07/22 00:18:45;;;;;;;;;24.00;23.67;;;;;22.43;62.48;101507.44;5018793;28;45413;-64
2022/07/22 00:21:10;;;;;;;;;27.00;27.00;;;;;22.43;62.28;101505.56;5019110;28;45440;-66
2022/07/22 00:23:35;;;;;;;;;29.00;26.00;;;;;22.34;62.28;101506.75;5018724;28;45629;-66
2022/07/22 00:26:01;;;;;;;;;31.33;25.67;;;;;21.83;61.97;101417.78;5018881;28;45577;-65
2022/07/22 00:28:26;;;;;;;;;26.00;23.67;;;;;22.15;62.25;101467.72;5018990;28;45269;-65
2022/07/22 00:30:52;;;;;;;;;24.33;21.67;;;;;22.19;62.45;101488.97;5019049;28;45444;-66
2022/07/22 00:33:17;;;;;;;;;22.00;20.33;;;;;22.26;62.74;101503.41;5018479;28;46828;-66
2022/07/22 00:35:43;;;;;;;;;27.67;27.33;;;;;22.10;62.07;101461.25;5018345;28;45197;-66
2022/07/22 00:38:10;;;;;;;;;26.33;22.67;;;;;22.27;62.34;101488.81;5017100;28;45469;-65
2022/07/22 00:40:39;;;;;;;;;21.67;21.67;;;;;22.37;62.33;101497.38;5018577;28;45419;-66
2022/07/22 00:43:04;;;;;;;;;27.33;24.67;;;;;22.32;62.02;101498.00;5018083;28;46238;-66
2022/07/22 00:45:30;;;;;;;;;19.67;18.33;;;;;21.71;62.10;101391.50;5018659;28;45319;-65
2022/07/22 00:47:55;;;;;;;;;28.00;24.00;;;;;22.12;62.39;101470.84;5017799;28;45243;-66
2022/07/22 00:50:23;;;;;;;;;31.67;24.00;;;;;21.65;62.88;101403.97;5018573;28;45414;-66
2022/07/22 00:52:49;;;;;;;;;29.00;25.00;;;;;21.97;62.71;101451.16;5018032;28;47495;-66
2022/07/22 00:55:15;;;;;;;;;23.67;23.67;;;;;22.26;62.48;101485.28;5016760;28;46055;-66
2022/07/22 00:57:41;;;;;;;;;25.00;24.67;;;;;22.29;62.75;101481.31;5018390;28;45291;-66
2022/07/22 01:00:11;;;;;;;;;22.00;21.67;;;;;22.26;62.32;101476.31;5019131;28;45526;-66
2022/07/22 01:02:36;;;;;;;;;25.00;22.00;;;;;21.96;62.57;101454.91;5016542;28;47340;-66
2022/07/22 01:05:02;;;;;;;;;27.67;27.67;;;;;21.89;62.96;101447.78;5017128;28;45576;-65
2022/07/22 01:07:28;;;;;;;;;26.33;24.33;;;;;22.04;62.95;101476.44;5018610;28;45326;-66
2022/07/22 01:09:53;;;;;;;;;22.67;21.67;;;;;22.07;62.93;101472.47;5018593;28;45462;-65
2022/07/22 01:12:19;;;;;;;;;20.67;20.67;;;;;21.97;62.71;101459.28;5018315;28;46541;-64
2022/07/22 01:14:44;;;;;;;;;27.67;24.67;;;;;21.94;62.69;101465.09;5018359;28;45514;-65
2022/07/22 01:17:10;;;;;;;;;21.00;20.00;;;;;21.95;63.10;101469.47;5018543;28;45645;-65
2022/07/22 01:19:38;;;;;;;;;20.67;18.33;;;;;22.00;62.97;101485.09;5017283;28;45454;-67
2022/07/22 01:22:05;;;;;;;;;28.00;27.67;;;;;22.00;62.63;101466.97;5016776;28;47630;-65
2022/07/22 01:24:30;;;;;;;;;25.33;21.33;;;;;21.74;62.81;101446.03;5018093;28;45312;-65
2022/07/22 01:26:58;;;;;;;;;21.00;20.00;;;;;21.38;62.90;101388.59;5018123;28;45486;-64
2022/07/22 01:29:24;;;;;;;;;20.00;19.00;;;;;21.89;63.22;101474.88;5017237;28;45539;-65
2022/07/22 01:31:49;;;;;;;;;23.00;21.67;;;;;21.83;62.63;101466.50;5018075;28;45769;-66
2022/07/22 01:34:15;;;;;;;;;18.33;17.67;;;;;21.96;62.74;101470.31;5018064;28;45259;-66
2022/07/22 01:36:40;;;;;;;;;19.00;18.33;;;;;21.92;62.79;101475.28;5017826;28;45292;-65
2022/07/22 01:39:06;;;;;;;;;23.33;23.33;;;;;21.82;62.91;101470.25;5033357;28;45302;-66
2022/07/22 01:41:32;;;;;;;;;20.00;18.00;;;;;21.82;63.22;101472.09;5017857;28;45594;-66
2022/07/22 01:43:57;;;;;;;;;23.67;22.33;;;;;21.77;62.82;101455.63;5016282;28;45443;-66
2022/07/22 01:46:23;;;;;;;;;24.67;22.00;;;;;21.87;62.45;101472.34;5017387;28;45422;-65
2022/07/22 01:48:52;;;;;;;;;17.33;16.67;;;;;21.85;62.08;101458.19;5017598;28;45345;-65
2022/07/22 01:51:18;;;;;;;;;23.33;21.00;;;;;21.93;62.42;101468.00;5017161;28;46326;-65
2022/07/22 01:53:45;;;;;;;;;20.00;18.33;;;;;21.80;62.73;101471.47;5032070;28;45440;-66
2022/07/22 01:56:11;;;;;;;;;24.33;21.33;;;;;21.77;62.60;101452.94;5015630;28;45222;-65
2022/07/22 01:58:36;;;;;;;;;21.00;20.67;;;;;21.28;62.75;101383.56;5016763;28;45329;-66
2022/07/22 02:01:02;;;;;;;;;21.33;19.00;;;;;21.61;62.87;101445.97;5016570;28;45849;-66
2022/07/22 02:03:28;;;;;;;;;20.33;20.33;;;;;21.73;62.75;101449.78;5032519;28;45349;-65
2022/07/22 02:05:53;;;;;;;;;20.33;18.00;;;;;21.84;62.25;101459.22;5017520;28;45426;-65
2022/07/22 02:08:18;;;;;;;;;22.33;20.00;;;;;21.83;62.38;101454.84;5017638;28;45434;-66
2022/07/22 02:10:44;;;;;;;;;26.67;21.67;;;;;21.72;62.59;101458.94;5016782;28;48322;-66
2022/07/22 02:13:10;;;;;;;;;22.33;22.33;;;;;21.59;62.90;101447.19;5016800;28;45467;-66
2022/07/22 02:15:35;;;;;;;;;21.67;20.67;;;;;21.49;63.11;101436.75;5017029;28;45415;-65
2022/07/22 02:18:09;;;;;;;;;21.00;19.67;;;;;21.50;63.08;101443.84;5032787;28;45523;-66
2022/07/22 02:20:35;;;;;;;;;24.67;21.67;;;;;21.47;63.25;101445.06;5016703;28;45388;-65
2022/07/22 02:23:00;;;;;;;;;22.33;21.67;;;;;21.53;63.10;101443.44;5015917;28;46022;-65
2022/07/22 02:25:25;;;;;;;;;21.67;19.67;;;;;21.61;63.05;101458.66;5017165;28;45331;-66
2022/07/22 02:27:51;;;;;;;;;19.33;19.00;;;;;21.53;63.22;101449.66;5017248;28;45407;-66
2022/07/22 02:30:16;;;;;;;;;21.67;19.33;;;;;21.45;62.98;101465.25;5016795;28;46437;-66
2022/07/22 02:32:41;;;;;;;;;20.33;20.33;;;;;21.47;62.96;101465.88;5016788;28;45564;-65
2022/07/22 02:35:07;;;;;;;;;23.00;20.67;;;;;21.51;62.91;101461.72;5016169;28;45298;-66
2022/07/22 02:37:33;;;;;;;;;22.67;19.00;;;;;21.43;62.55;101454.63;5017301;28;45420;-65
2022/07/22 02:39:58;;;;;;;;;24.00;22.67;;;;;21.49;62.30;101472.75;5016646;28;46413;-65
2022/07/22 02:42:24;;;;;;;;;22.33;21.00;;;;;21.16;62.99;101420.25;5016473;28;45252;-65
2022/07/22 02:44:49;;;;;;;;;20.67;19.67;;;;;21.39;62.88;101464.13;5016602;28;45414;-65
2022/07/22 02:47:14;;;;;;;;;18.33;15.67;;;;;21.08;63.08;101404.19;5016475;28;45349;-65
2022/07/22 02:49:40;;;;;;;;;19.00;19.00;;;;;21.32;62.63;101435.38;5016323;28;45693;-67
2022/07/22 02:52:05;;;;;;;;;22.67;20.67;;;;;21.45;62.76;101451.72;5016618;28;45510;-66
2022/07/22 02:54:30;;;;;;;;;21.67;16.67;;;;;21.36;63.03;101439.34;5016474;28;45366;-65
2022/07/22 02:56:55;;;;;;;;;20.00;16.67;;;;;21.43;62.55;101453.78;5031612;28;45571;-65
2022/07/22 02:59:21;;;;;;;;;14.33;14.33;;;;;21.29;62.70;101433.06;5031692;28;48780;-65
2022/07/22 03:01:46;;;;;;;;;17.67;17.67;;;;;21.31;62.95;101434.56;5031448;28;45261;-66
2022/07/22 03:04:12;;;;;;;;;15.33;15.33;;;;;21.37;62.81;101441.88;5016583;28;45865;-65
2022/07/22 03:06:37;;;;;;;;;20.67;18.00;;;;;21.36;63.05;101448.31;5016309;28;45584;-64
2022/07/22 03:09:04;;;;;;;;;13.67;12.67;;;;;21.29;63.11;101452.00;5016047;28;45481;-65
2022/07/22 03:11:29;;;;;;;;;21.00;19.33;;;;;21.25;63.17;101451.56;5018557;28;45260;-64
2022/07/22 03:13:55;;;;;;;;;23.67;19.00;;;;;20.71;63.03;101359.41;5019818;28;45303;-66
2022/07/22 03:16:20;;;;;;;;;21.00;18.00;;;;;21.05;63.11;101429.75;5020014;28;45605;-65
2022/07/22 03:18:45;;;;;;;;;18.00;18.00;;;;;21.16;63.24;101441.88;5019363;28;47072;-65
2022/07/22 03:21:11;;;;;;;;;21.33;18.33;;;;;21.11;63.46;101439.78;5019574;28;45481;-66
2022/07/22 03:23:36;;;;;;;;;17.00;17.00;;;;;21.12;63.24;101446.03;5019668;28;45430;-65
2022/07/22 03:26:02;;;;;;;;;19.00;18.00;;;;;20.95;63.59;101440.91;5018439;28;45304;-65
2022/07/22 03:28:27;;;;;;;;;20.67;20.67;;;;;20.91;63.69;101445.03;5019580;28;45694;-65
2022/07/22 03:30:53;;;;;;;;;15.33;13.00;;;;;20.87;63.69;101429.41;5019596;28;45548;-65
2022/07/22 03:33:18;;;;;;;;;20.00;20.00;;;;;20.81;64.10;101436.41;5019711;28;45197;-65
2022/07/22 03:35:43;;;;;;;;;17.00;17.00;;;;;20.87;64.13;101448.31;5019730;28;45208;-66
2022/07/22 03:38:09;;;;;;;;;19.00;15.67;;;;;20.86;64.03;101444.78;5019287;28;46902;-65
2022/07/22 03:40:34;;;;;;;;;20.00;20.00;;;;;20.03;63.93;101310.34;5019541;28;45411;-68
2022/07/22 03:43:00;;;;;;;;;18.33;18.00;;;;;20.87;63.96;101445.63;5019753;28;45299;-67
2022/07/22 03:45:25;;;;;;;;;20.67;18.33;;;;;20.81;64.00;101444.50;5019712;28;45474;-65
2022/07/22 03:47:50;;;;;;;;;21.67;21.00;;;;;20.68;64.23;101433.59;5034629;28;48611;-65
2022/07/22 03:50:16;;;;;;;;;24.00;19.00;;;;;20.72;64.10;101439.44;5019037;28;45155;-65
2022/07/22 03:52:41;;;;;;;;;21.67;19.67;;;;;18.77;63.87;101116.59;5019389;28;46404;-65
2022/07/22 03:55:07;;;;;;;;;19.00;17.67;;;;;20.76;64.26;101446.97;5034731;28;45335;-66
2022/07/22 03:57:32;;;;;;;;;20.67;19.67;;;;;20.73;64.43;101452.75;5018995;28;46461;-66
2022/07/22 03:59:58;;;;;;;;;20.67;20.33;;;;;20.52;64.06;101412.22;5034260;28;45382;-66
2022/07/22 04:02:23;;;;;;;;;20.00;18.00;;;;;19.94;64.20;101314.19;5019184;28;45852;-67
2022/07/22 04:04:48;;;;;;;;;21.67;20.00;;;;;20.68;64.15;101447.09;5019280;28;45557;-65
2022/07/22 04:07:14;;;;;;;;;22.00;17.67;;;;;19.63;64.58;101291.03;5019212;28;45456;-67
2022/07/22 04:09:39;;;;;;;;;18.00;16.00;;;;;20.63;64.15;101447.69;5019037;28;45370;-64
2022/07/22 04:12:05;;;;;;;;;22.00;21.33;;;;;20.15;64.41;101380.84;5019623;28;45294;-65
2022/07/22 04:14:30;;;;;;;;;21.00;20.33;;;;;20.27;64.55;101393.69;5019085;28;45445;-65
2022/07/22 04:16:55;;;;;;;;;19.33;15.67;;;;;20.51;64.33;101415.97;5033723;28;47957;-65
2022/07/22 04:19:21;;;;;;;;;20.33;16.33;;;;;20.42;64.41;101409.00;5018731;28;45431;-65
2022/07/22 04:21:46;;;;;;;;;17.33;15.33;;;;;20.64;64.13;101443.13;5018310;28;45675;-64
2022/07/22 04:24:12;;;;;;;;;22.33;19.00;;;;;20.12;64.33;101360.47;5019407;28;45279;-65
2022/07/22 04:26:37;;;;;;;;;17.67;17.67;;;;;20.43;64.38;101413.41;5034970;28;48495;-64
2022/07/22 04:29:04;;;;;;;;;17.00;15.33;;;;;20.49;64.90;101439.63;5018798;28;45256;-64
2022/07/22 04:31:29;;;;;;;;;19.33;16.00;;;;;20.44;64.56;101431.28;5018727;28;45235;-65
2022/07/22 04:33:55;;;;;;;;;17.67;16.67;;;;;20.35;64.71;101417.84;5018568;28;45485;-66
2022/07/22 04:36:23;;;;;;;;;18.00;17.33;;;;;20.17;64.71;101382.34;5018240;28;46893;-65
2022/07/22 04:38:49;;;;;;;;;18.33;17.33;;;;;20.34;64.80;101418.88;5018405;28;45370;-65
2022/07/22 04:41:15;;;;;;;;;17.33;17.33;;;;;20.47;64.78;101434.44;5018312;28;45502;-67
2022/07/22 04:43:40;;;;;;;;;20.33;18.33;;;;;20.52;64.42;101433.84;5018305;28;45446;-66
2022/07/22 04:46:05;;;;;;;;;22.33;19.00;;;;;19.94;64.35;101327.69;5017939;28;46179;-66
2022/07/22 04:48:31;;;;;;;;;19.67;18.33;;;;;20.55;64.46;101425.34;5018331;28;45415;-65
2022/07/22 04:51:01;;;;;;;;;18.33;15.33;;;;;20.47;64.56;101415.53;5033462;28;45357;-64
2022/07/22 04:53:27;;;;;;;;;27.00;22.00;;;;;20.63;64.44;101425.25;5018561;28;45434;-65
2022/07/22 04:55:52;;;;;;;;;20.00;18.00;;;;;20.46;64.18;101407.59;5017917;28;45547;-64
2022/07/22 04:58:17;;;;;;;;;20.33;17.67;;;;;20.53;64.49;101413.91;5018013;28;45391;-65
2022/07/22 05:00:43;;;;;;;;;23.33;20.67;;;;;20.44;63.98;101382.66;5033133;28;45484;-66
2022/07/22 05:03:08;;;;;;;;;18.67;15.67;;;;;20.67;63.95;101413.00;5018368;28;45312;-64
2022/07/22 05:05:34;;;;;;;;;20.00;20.00;;;;;20.56;63.76;101395.44;5017887;28;46467;-66
2022/07/22 05:07:59;;;;;;;;;19.33;14.33;;;;;20.67;63.51;101418.41;5018128;28;45490;-66
2022/07/22 05:10:27;;;;;;;;;20.00;18.00;;;;;20.59;63.87;101413.94;5018617;28;45779;-67
2022/07/22 05:12:56;;;;;;;;;20.33;17.33;;;;;20.61;64.07;101421.88;5018611;28;45459;-66
2022/07/22 05:15:21;;;;;;;;;17.67;16.33;;;;;20.65;63.78;101413.19;5018278;28;46347;-66
2022/07/22 05:17:47;;;;;;;;;18.00;16.00;;;;;20.67;63.51;101410.31;5017612;28;45248;-65
2022/07/22 05:20:13;;;;;;;;;20.67;19.00;;;;;20.60;63.05;101387.78;5017978;28;45422;-65
2022/07/22 05:22:38;;;;;;;;;18.67;16.33;;;;;20.71;63.12;101408.03;5018079;28;45363;-65
2022/07/22 05:25:04;;;;;;;;;22.33;18.67;;;;;20.72;63.45;101413.25;5017480;28;46442;-65
2022/07/22 05:27:29;;;;;;;;;20.00;18.00;;;;;20.69;63.44;101415.50;5032710;28;46491;-64
2022/07/22 05:29:56;;;;;;;;;16.67;16.67;;;;;20.73;63.29;101408.69;5017828;28;45313;-66
2022/07/22 05:32:21;;;;;;;;;24.33;22.67;;;;;20.68;63.24;101395.75;5032789;28;45415;-66
2022/07/22 05:34:47;;;;;;;;;16.33;16.33;;;;;20.23;62.88;101311.38;5017039;28;45858;-66
2022/07/22 05:37:12;;;;;;;;;17.00;17.00;;;;;20.76;63.12;101408.28;5017138;28;47861;-67
2022/07/22 05:39:38;;;;;;;;;19.33;17.00;;;;;20.90;63.34;101410.91;5017532;28;45426;-68
2022/07/22 05:42:03;;;;;;;;;19.33;19.33;;;;;20.94;62.49;101403.25;5017378;28;45228;-67
2022/07/22 05:44:28;;;;;;;;;19.33;18.33;;;;;20.49;62.71;101334.28;5017311;28;46373;-67
2022/07/22 05:46:54;;;;;;;;;19.33;19.33;;;;;20.92;62.73;101392.63;5017007;28;45371;-65
2022/07/22 05:49:19;;;;;;;;;16.00;13.33;;;;;20.92;62.07;101389.94;5017414;28;45289;-67
2022/07/22 05:51:45;;;;;;;;;21.00;19.33;;;;;21.00;61.84;101390.81;5017509;28;45502;-67
2022/07/22 05:54:10;;;;;;;;;20.67;18.33;;;;;21.15;62.21;101407.78;5016902;28;46436;-65
2022/07/22 05:56:36;;;;;;;;;16.67;16.67;;;;;21.23;61.53;101396.81;5017031;28;45466;-67
2022/07/22 05:59:01;;;;;;;;;17.67;17.00;;;;;21.25;61.66;101394.78;5017318;28;45215;-67
2022/07/22 06:01:26;;;;;;;;;21.33;18.67;;;;;21.15;61.38;101370.75;5017767;28;45406;-65
2022/07/22 06:03:52;;;;;;;;;19.67;19.67;;;;;21.45;61.14;101386.78;5015859;28;47586;-64
2022/07/22 06:06:17;;;;;;;;;18.67;18.67;;;;;21.63;60.99;101397.09;5017330;28;45442;-66
2022/07/22 06:08:43;;;;;;;;;16.67;15.67;;;;;21.65;60.37;101366.06;5017265;28;45434;-66
2022/07/22 06:11:08;;;;;;;;;20.33;18.00;;;;;21.96;59.51;101379.09;5017169;28;45390;-66
2022/07/22 06:13:34;;;;;;;;;25.67;18.67;;;;;22.10;59.10;101386.25;5016660;28;45434;-65
2022/07/22 06:16:00;;;;;;;;;17.67;16.67;;;;;22.14;58.53;101387.50;5032087;28;45679;-66
2022/07/22 06:18:25;;;;;;;;;20.67;19.33;;;;;22.22;58.38;101393.75;5017058;28;45304;-67
2022/07/22 06:20:50;;;;;;;;;18.67;17.67;;;;;22.30;58.75;101407.13;5017135;28;45384;-68
2022/07/22 06:23:16;;;;;;;;;22.33;20.33;;;;;21.85;57.91;101301.19;5016670;28;46372;-65
2022/07/22 06:25:42;;;;;;;;;16.67;15.67;;;;;22.57;57.32;101381.75;5016619;28;45259;-66
2022/07/22 06:28:07;;;;;;;;;20.33;18.00;;;;;22.86;56.89;101391.38;5016924;28;45422;-65
2022/07/22 06:30:33;;;;;;;;;20.67;19.00;;;;;23.11;55.74;101394.28;5031900;28;45209;-68
2022/07/22 06:32:58;;;;;;;;;16.67;16.67;;;;;23.42;56.27;101390.03;5016545;28;46480;-65
2022/07/22 06:35:24;;;;;;;;;22.00;18.33;;;;;23.83;53.85;101393.28;5016457;28;45245;-65
2022/07/22 06:37:50;;;;;;;;;22.00;22.00;;;;;24.23;53.04;101387.66;5016635;28;45223;-66
2022/07/22 06:40:15;;;;;;;;;20.67;17.67;;;;;24.51;51.86;101385.38;5016857;28;45507;-66
2022/07/22 06:42:41;;;;;;;;;18.67;18.33;;;;;24.60;50.83;101383.22;5016170;28;46699;-66
2022/07/22 06:45:06;;;;;;;;;21.67;20.33;;;;;24.64;51.64;101394.50;5015884;28;45529;-65
2022/07/22 06:47:35;;;;;;;;;12.00;12.00;;;;;24.59;51.57;101365.25;5016421;28;45280;-66
2022/07/22 06:50:02;;;;;;;;;18.00;15.67;;;;;24.75;51.24;101396.50;5014512;28;45377;-68
2022/07/22 06:52:28;;;;;;;;;19.33;17.67;;;;;24.69;52.02;101400.94;5016616;28;46031;-67
2022/07/22 06:54:53;;;;;;;;;20.00;17.33;;;;;24.60;50.95;101396.81;5016273;28;45327;-65
2022/07/22 06:57:18;;;;;;;;;19.67;16.33;;;;;24.58;51.79;101407.06;5015868;28;45376;-66
2022/07/22 06:59:44;;;;;;;;;19.33;16.33;;;;;24.58;51.95;101412.50;5014932;28;45440;-66
2022/07/22 07:02:09;;;;;;;;;23.67;20.33;;;;;24.54;52.08;101408.56;5016046;28;45837;-66
2022/07/22 07:04:34;;;;;;;;;21.00;19.33;;;;;24.60;52.07;101417.72;5014671;28;46168;-66
2022/07/22 07:07:00;;;;;;;;;21.00;18.33;;;;;24.68;52.62;101420.19;5016203;28;45518;-67
2022/07/22 07:09:25;;;;;;;;;21.67;16.00;;;;;24.74;51.74;101401.09;5016245;28;45237;-66
2022/07/22 07:11:51;;;;;;;;;22.00;19.00;;;;;24.92;51.12;101411.19;5012989;28;46583;-65
2022/07/22 07:14:16;;;;;;;;;22.33;20.33;;;;;24.88;50.55;101405.38;5015884;28;45216;-68
2022/07/22 07:16:41;;;;;;;;;31.33;28.33;;;;;24.69;51.08;101391.94;5016329;28;45231;-66
2022/07/22 07:19:07;;;;;;;;;21.67;19.00;;;;;24.24;51.46;101315.94;5016463;28;45617;-69
2022/07/22 07:21:32;;;;;;;;;25.67;22.00;;;;;24.67;51.18;101392.16;5015897;28;46510;-67
2022/07/22 07:23:58;;;;;;;;;18.33;16.67;;;;;24.33;51.12;101325.50;5015922;28;45377;-67
2022/07/22 07:26:23;;;;;;;;;21.00;19.67;;;;;24.56;51.96;101388.25;5031284;28;45569;-66
2022/07/22 07:28:49;;;;;;;;;23.33;23.00;;;;;24.47;51.86;101378.72;5016091;28;45292;-65
2022/07/22 07:31:14;;;;;;;;;21.33;20.00;;;;;24.39;51.70;101370.81;5015412;28;45769;-67
2022/07/22 07:33:40;;;;;;;;;24.67;18.33;;;;;24.45;51.95;101386.28;5015424;28;45542;-66
2022/07/22 07:36:05;;;;;;;;;25.00;22.67;;;;;24.47;51.88;101386.06;5030649;28;45381;-67
2022/07/22 07:38:31;;;;;;;;;23.67;18.67;;;;;24.47;51.84;101373.28;5030807;28;45560;-67
2022/07/22 07:40:57;;;;;;;;;26.67;23.67;;;;;24.73;52.11;101385.00;5030643;28;47816;-70
2022/07/22 07:43:22;;;;;;;;;25.67;24.33;;;;;24.81;50.82;101401.03;5015385;28;45383;-68
2022/07/22 07:45:48;;;;;;;;;21.67;18.67;;;;;24.89;50.81;101392.63;5015577;28;45274;-69
2022/07/22 07:48:13;;;;;;;;;20.33;20.00;;;;;24.25;51.09;101301.31;5015548;28;45221;-68
2022/07/22 07:50:39;;;;;;;;;19.33;18.33;;;;;24.65;51.01;101380.69;5015454;28;46639;-67
2022/07/22 07:53:04;;;;;;;;;23.33;19.00;;;;;24.61;51.24;101373.16;5014025;28;45258;-67
2022/07/22 07:55:29;;;;;;;;;24.00;22.00;;;;;24.80;51.93;101402.91;5014458;28;45318;-69
2022/07/22 07:57:55;;;;;;;;;20.33;19.00;;;;;24.94;51.93;101416.41;5017001;28;45438;-67
2022/07/22 08:00:23;;;;;;;;;23.33;22.67;;;;;25.04;51.24;101411.34;5017039;28;46914;-68
2022/07/22 08:02:49;;;;;;;;;19.33;18.67;;;;;25.12;50.75;101398.28;5019087;28;45392;-67
2022/07/22 08:05:15;;;;;;;;;18.67;18.67;;;;;25.15;50.67;101394.28;5018688;28;45404;-67
2022/07/22 08:07:40;;;;;;;;;21.00;18.33;;;;;25.15;50.45;101391.56;5018755;28;45312;-67
2022/07/22 08:10:06;;;;;;;;;23.00;19.67;;;;;25.08;50.38;101383.47;5017310;28;46809;-68
2022/07/22 08:12:32;;;;;;;;;23.33;20.33;;;;;25.15;51.13;101386.94;5018302;28;45697;-67
2022/07/22 08:14:57;;;;;;;;;23.00;20.00;;;;;25.17;50.19;101389.44;5018495;28;45579;-65
2022/07/22 08:17:23;;;;;;;;;19.00;19.00;;;;;25.15;50.40;101376.06;5034060;28;45585;-65
2022/07/22 08:19:48;;;;;;;;;20.33;17.33;;;;;25.25;50.65;101377.44;5018461;28;46805;-66
2022/07/22 08:22:14;;;;;;;;;15.67;15.33;;;;;25.32;50.45;101378.19;5018249;28;45553;-65
2022/07/22 08:24:39;;;;;;;;;19.67;19.33;;;;;25.30;50.50;101362.09;5018470;28;45256;-66
2022/07/22 08:27:05;;;;;;;;;22.00;20.67;;;;;25.42;50.29;101373.88;5017493;28;45210;-65
2022/07/22 08:29:30;;;;;;;;;22.67;21.00;;;;;25.47;49.63;101373.22;5017769;28;47523;-66
2022/07/22 08:31:55;;;;;;;;;21.67;20.33;;;;;25.45;49.89;101370.72;5017069;28;45279;-66
2022/07/22 08:34:21;;;;;;;;;22.67;19.67;;;;;25.40;50.12;101356.09;5018198;28;45320;-66
2022/07/22 08:36:46;;;;;;;;;21.67;17.67;;;;;25.48;50.32;101375.72;5016841;28;45464;-66
2022/07/22 08:39:11;;;;;;;;;25.33;22.00;;;;;25.00;50.51;101296.69;5017976;28;45357;-66
2022/07/22 08:41:39;;;;;;;;;26.00;22.33;;;;;25.50;50.39;101366.47;5016758;28;45413;-67
2022/07/22 08:44:06;;;;;;;;;20.00;18.67;;;;;25.54;50.72;101373.97;5033514;28;45423;-67
2022/07/22 08:46:32;;;;;;;;;18.67;18.67;;;;;25.57;49.95;101376.22;5017982;28;45383;-66
2022/07/22 08:49:00;;;;;;;;;14.00;12.67;;;;;25.61;49.92;101369.25;5017582;28;45288;-67
2022/07/22 08:51:26;;;;;;;;;19.33;19.33;;;;;25.57;50.21;101351.72;5018066;28;45387;-67
2022/07/22 08:53:52;;;;;;;;;15.00;15.00;;;;;25.60;49.75;101353.97;5017365;28;45542;-66
2022/07/22 08:56:17;;;;;;;;;21.67;20.33;;;;;25.62;49.75;101346.41;5031974;28;45515;-67
2022/07/22 08:58:43;;;;;;;;;23.00;23.00;;;;;25.51;50.11;101328.13;5016567;28;45786;-67
2022/07/22 09:01:14;;;;;;;;;24.00;19.67;;;;;25.13;50.45;101266.63;5015414;28;45498;-66
2022/07/22 09:03:49;;;;;;;;;21.67;19.33;;;;;25.50;50.84;101292.97;5018252;28;45513;-66
2022/07/22 09:06:15;;;;;;;;;22.67;22.00;;;;;25.41;50.35;101273.38;5033401;28;45392;-68
2022/07/22 09:08:59;;;;;;;;;16.67;16.67;;;;;25.09;50.20;101180.25;5017644;28;47447;-78
2022/07/22 09:11:28;;;;;;;;;22.00;20.33;;;;;25.70;50.18;101283.50;5033590;28;46615;-66
2022/07/22 09:13:53;;;;;;;;;18.33;17.67;;;;;25.34;50.11;101234.53;5033036;28;45503;-66
2022/07/22 09:16:38;;;;;;;;;23.00;23.00;;;;;25.60;50.33;101315.84;5017896;28;45561;-68
2022/07/22 09:19:03;;;;;;;;;19.67;17.67;;;;;25.45;50.42;101301.84;5016281;28;46320;-67
2022/07/22 09:21:30;;;;;;;;;17.67;17.00;;;;;25.50;50.44;101303.88;5014590;28;45543;-66
2022/07/22 09:23:56;;;;;;;;;21.33;17.67;;;;;25.80;50.53;101334.69;5017896;28;45410;-64
2022/07/22 09:26:32;;;;;;;;;19.67;18.67;;;;;25.91;49.86;101339.38;5017904;28;45299;-65
2022/07/22 09:28:58;;;;;;;;;20.00;17.33;;;;;26.01;50.26;101364.16;5032880;28;47346;-67
2022/07/22 09:31:35;;;;;;;;;21.67;21.67;;;;;26.14;49.75;101365.88;5017507;28;45544;-66
2022/07/22 09:34:01;;;;;;;;;22.67;20.67;;;;;26.27;49.32;101353.94;5017949;28;45308;-66
2022/07/22 09:36:27;;;;;;;;;19.33;19.33;;;;;26.29;48.90;101347.19;5017738;28;45344;-67
2022/07/22 09:38:53;;;;;;;;;19.00;17.33;;;;;25.88;49.10;101265.44;5017367;28;46958;-66
2022/07/22 09:41:18;;;;;;;;;21.33;17.33;;;;;26.24;48.92;101298.00;5017474;28;45260;-65
2022/07/22 09:43:44;;;;;;;;;23.33;20.33;;;;;25.77;48.95;101216.16;5014981;28;45489;-66
2022/07/22 09:46:10;;;;;;;;;18.33;18.00;;;;;26.24;49.46;101292.56;5017281;28;45332;-66
2022/07/22 09:48:36;;;;;;;;;19.00;18.00;;;;;26.34;49.00;101309.19;4999258;28;47311;-65
2022/07/22 09:51:05;;;;;;;;;19.33;19.00;;;;;26.23;48.59;101299.06;5017144;28;45556;-66
2022/07/22 09:53:32;;;;;;;;;25.33;21.67;;;;;25.96;49.07;101265.09;5010795;28;45472;-70
2022/07/22 09:56:04;;;;;;;;;21.33;19.00;;;;;26.27;49.08;101327.53;5017129;28;45537;-66
2022/07/22 09:58:30;;;;;;;;;19.67;19.00;;;;;26.10;49.11;101288.38;5032163;28;46859;-64
2022/07/22 10:01:05;;;;;;;;;24.67;22.67;;;;;26.32;49.30;101319.47;5016463;28;45278;-67
2022/07/22 10:03:33;;;;;;;;;25.00;20.67;;;;;26.32;49.23;101330.38;5017402;28;45481;-66
2022/07/22 10:06:01;;;;;;;;;23.67;21.33;;;;;26.29;49.17;101322.66;5017364;28;45363;-67
2022/07/22 10:08:31;;;;;;;;;21.00;19.00;;;;;26.26;49.22;101323.13;5017042;28;46501;-66
2022/07/22 10:11:01;;;;;;;;;20.67;19.33;;;;;26.37;49.07;101335.16;5016569;28;45512;-66
2022/07/22 10:13:27;;;;;;;;;24.33;20.67;;;;;26.28;49.19;101312.00;5031880;28;45298;-65
2022/07/22 10:15:57;;;;;;;;;19.33;18.33;;;;;26.29;48.71;101298.13;5016657;28;45620;-67
2022/07/22 10:18:31;;;;;;;;;22.00;22.00;;;;;26.41;48.75;101310.97;5032208;28;47792;-65
2022/07/22 10:21:02;;;;;;;;;22.67;21.33;;;;;26.45;48.45;101314.91;5015533;28;45517;-65
2022/07/22 10:23:27;;;;;;;;;22.67;19.67;;;;;26.38;48.75;101309.53;5016490;28;45443;-66
2022/07/22 10:25:58;;;;;;;;;19.00;19.00;;;;;26.44;49.03;101324.16;5017307;28;45364;-64
2022/07/22 10:28:34;;;;;;;;;23.33;20.00;;;;;26.48;48.87;101319.88;5016553;28;46870;-66
2022/07/22 10:31:16;;;;;;;;;24.33;24.00;;;;;26.40;49.03;101307.41;5016673;28;45381;-66
2022/07/22 10:33:44;;;;;;;;;19.67;19.67;;;;;26.26;49.24;101300.50;5016642;28;45416;-66
2022/07/22 10:36:10;;;;;;;;;21.33;19.33;;;;;25.71;49.22;101205.34;5016657;28;45316;-66
2022/07/22 10:38:35;;;;;;;;;19.33;18.67;;;;;26.26;49.67;101289.59;5016437;28;45704;-66
2022/07/22 10:41:03;;;;;;;;;21.00;20.67;;;;;26.22;49.94;101293.84;5016574;28;45297;-67
2022/07/22 10:43:46;;;;;;;;;26.33;23.33;;;;;25.96;51.41;101262.38;5016491;28;45297;-65
2022/07/22 10:46:11;;;;;;;;;22.33;21.33;;;;;25.95;52.06;101269.72;5031578;28;45538;-66
2022/07/22 10:48:36;;;;;;;;;26.67;25.67;;;;;25.70;52.87;101222.75;5016533;28;45954;-66
2022/07/22 10:51:12;;;;;;;;;32.33;26.33;;;;;25.48;54.28;101195.19;5016215;28;45429;-66
2022/07/22 10:53:57;;;;;;;;;30.67;30.67;;;;;25.30;55.05;101187.91;5016980;28;45433;-65
2022/07/22 10:56:35;;;;;;;;;27.00;23.67;;;;;25.25;55.83;101193.22;5016542;28;45417;-65
2022/07/22 10:59:19;;;;;;;;;30.33;26.00;;;;;25.10;56.32;101209.94;5016311;28;46446;-67
2022/07/22 11:01:53;;;;;;;;;34.33;32.33;;;;;25.16;55.58;101219.91;5016259;28;45620;-66
2022/07/22 11:04:23;;;;;;;;;28.67;27.33;;;;;25.16;56.17;101219.91;5016118;28;45268;-66
2022/07/22 11:06:50;;;;;;;;;31.33;29.67;;;;;25.15;55.89;101207.34;5016481;28;45487;-65